Time;durP1;ratioP1;P1;durP2;ratioP2;P2;SDS_P1;SDS_P2;PMS_P1;PMS_P2;Temp;Humidity;BMP_temperature;BMP_pressure;BME280_temperature;BME280_humidity;BME280_pressure;Samples;Min_cycle;Max_cycle;Signal;HPM_P1;HPM_P2
2022/09/16 00:01:02;;;;;;;;;1.00;1.00;;;;;22.70;52.80;99409.10;110978;1266;13200;-88
2022/09/16 00:03:41;;;;;;;;;1.00;1.00;;;;;22.69;52.87;99410.55;111020;1266;12668;-89
2022/09/16 00:06:08;;;;;;;;;1.00;1.00;;;;;22.69;52.77;99413.06;111030;1267;13132;-88
2022/09/16 00:08:39;;;;;;;;;1.00;1.00;;;;;22.69;52.81;99412.85;111035;1266;12677;-88
2022/09/16 00:11:09;;;;;;;;;1.00;1.00;;;;;22.70;52.85;99418.05;110962;1267;13176;-87
2022/09/16 00:13:39;;;;;;;;;1.00;1.00;;;;;22.69;52.79;99415.42;111031;1266;13169;-87
2022/09/16 00:16:07;;;;;;;;;1.00;1.00;;;;;22.70;52.79;99419.48;110994;1267;13098;-88
2022/09/16 00:18:34;;;;;;;;;1.00;1.00;;;;;22.70;52.80;99423.48;110949;1266;13045;-86
2022/09/16 00:21:01;;;;;;;;;1.00;1.00;;;;;22.70;52.77;99424.18;110920;1267;17427;-88
2022/09/16 00:23:29;;;;;;;;;1.00;1.00;;;;;22.70;52.77;99431.23;110855;1265;12711;-87
2022/09/16 00:25:56;;;;;;;;;1.00;1.00;;;;;22.71;52.77;99434.44;110974;1266;13199;-87
2022/09/16 00:28:23;;;;;;;;;1.00;1.00;;;;;22.71;52.71;99434.44;110938;1267;13225;-87
2022/09/16 00:30:50;;;;;;;;;1.00;1.00;;;;;22.71;52.74;99436.97;110946;1267;13168;-86
2022/09/16 00:33:18;;;;;;;;;1.00;1.00;;;;;22.71;52.74;99433.85;110993;1266;16627;-86
2022/09/16 00:35:45;;;;;;;;;1.00;1.00;;;;;22.71;52.75;99434.85;110955;1267;12754;-87
2022/09/16 00:38:12;;;;;;;;;1.00;1.00;;;;;22.70;52.80;99432.64;110957;1266;12970;-87
2022/09/16 00:40:40;;;;;;;;;1.00;1.00;;;;;22.70;52.76;99431.84;110915;1267;12732;-86
2022/09/16 00:43:07;;;;;;;;;1.00;1.00;;;;;22.70;52.82;99429.86;110914;1267;12903;-86
2022/09/16 00:45:34;;;;;;;;;1.00;1.00;;;;;22.70;52.80;99431.63;110974;1267;13318;-86
2022/09/16 00:48:02;;;;;;;;;1.00;1.00;;;;;22.69;52.77;99435.03;110996;1267;13166;-85
2022/09/16 00:50:29;;;;;;;;;1.00;1.00;;;;;22.69;52.85;99430.26;110912;1266;13018;-87
2022/09/16 00:52:56;;;;;;;;;1.00;1.00;;;;;22.68;52.85;99435.33;110913;1266;13088;-86
2022/09/16 00:55:24;;;;;;;;;1.00;1.00;;;;;22.70;52.85;99441.00;110864;1267;12971;-86
2022/09/16 00:57:51;;;;;;;;;1.00;1.00;;;;;22.70;52.88;99437.39;110959;1266;12963;-88
2022/09/16 01:00:18;;;;;;;;;1.00;1.00;;;;;22.69;52.80;99435.74;110897;1267;13154;-87
2022/09/16 01:02:46;;;;;;;;;1.00;1.00;;;;;22.69;52.79;99439.50;110859;1266;12992;-88
2022/09/16 01:05:13;;;;;;;;;1.00;1.00;;;;;22.70;52.77;99442.80;111034;1266;13286;-87
2022/09/16 01:07:40;;;;;;;;;1.00;1.00;;;;;22.69;52.77;99440.16;111211;1267;13167;-87
2022/09/16 01:10:08;;;;;;;;;1.00;1.00;;;;;22.70;52.76;99434.73;111040;1266;13092;-87
2022/09/16 01:12:35;;;;;;;;;2.00;2.00;;;;;22.70;52.71;99433.36;110922;1266;12719;-88
2022/09/16 01:15:02;;;;;;;;;1.00;1.00;;;;;22.69;52.67;99431.38;110956;1267;12986;-87
2022/09/16 01:17:29;;;;;;;;;1.00;1.00;;;;;22.70;52.72;99425.38;110934;1267;12646;-87
2022/09/16 01:19:57;;;;;;;;;1.00;1.00;;;;;22.67;52.73;99426.40;110976;1266;13045;-87
2022/09/16 01:22:24;;;;;;;;;1.00;1.00;;;;;22.67;52.71;99431.70;110944;1266;12955;-86
2022/09/16 01:24:51;;;;;;;;;1.00;1.00;;;;;22.69;52.75;99436.17;110913;1267;12773;-86
2022/09/16 01:27:19;;;;;;;;;1.00;1.00;;;;;22.69;52.64;99435.46;110984;1267;13185;-86
2022/09/16 01:29:46;;;;;;;;;1.00;1.00;;;;;22.68;52.66;99433.45;110824;1267;12264;-87
2022/09/16 01:32:13;;;;;;;;;1.00;1.00;;;;;22.69;52.68;99432.36;110864;1266;13257;-86
2022/09/16 01:34:41;;;;;;;;;1.00;1.00;;;;;22.69;52.70;99431.47;110831;1266;12888;-87
2022/09/16 01:37:08;;;;;;;;;1.00;1.00;;;;;22.68;52.65;99432.81;111026;1266;12772;-87
2022/09/16 01:42:20;;;;;;;;;1.00;1.00;;;;;22.70;52.63;99429.86;110892;1267;12671;-87
2022/09/16 01:45:01;;;;;;;;;1.33;1.00;;;;;22.70;52.60;99429.86;110985;1266;12687;-86
2022/09/16 01:47:38;;;;;;;;;1.00;1.00;;;;;22.69;52.62;99427.77;110888;1266;12776;-86
2022/09/16 01:50:05;;;;;;;;;1.00;1.00;;;;;22.69;52.60;99431.59;110909;1266;13218;-86
2022/09/16 01:52:32;;;;;;;;;1.00;1.00;;;;;22.69;52.61;99431.09;110902;1267;13246;-86
2022/09/16 01:55:00;;;;;;;;;1.00;1.00;;;;;22.68;52.59;99426.60;110885;1265;13011;-87
2022/09/16 01:57:27;;;;;;;;;1.00;1.00;;;;;22.68;52.58;99430.14;110902;1267;13148;-85
2022/09/16 01:59:54;;;;;;;;;1.00;1.00;;;;;22.66;52.64;99430.17;110946;1266;13892;-88
2022/09/16 02:02:21;;;;;;;;;1.00;1.00;;;;;22.67;52.61;99430.86;110907;1267;12995;-87
2022/09/16 02:04:49;;;;;;;;;1.00;1.00;;;;;22.67;52.62;99432.58;110918;1267;12925;-87
2022/09/16 02:07:16;;;;;;;;;1.00;1.00;;;;;22.68;52.59;99429.76;110917;1267;12992;-87
2022/09/16 02:09:51;;;;;;;;;1.67;1.00;;;;;22.68;52.61;99433.20;110901;1267;16647;-86
2022/09/16 02:12:18;;;;;;;;;1.00;1.00;;;;;22.67;52.54;99431.58;110943;1266;13031;-86
2022/09/16 02:14:46;;;;;;;;;1.00;1.00;;;;;22.66;52.56;99431.88;110967;1267;14640;-85
2022/09/16 02:17:17;;;;;;;;;1.00;1.00;;;;;22.65;52.57;99432.88;110899;1267;12811;-85
2022/09/16 02:19:45;;;;;;;;;1.00;1.00;;;;;22.66;52.54;99429.80;110921;1266;13355;-87
2022/09/16 02:22:12;;;;;;;;;1.00;1.00;;;;;22.67;52.53;99434.93;110989;1266;12733;-86
2022/09/16 02:24:40;;;;;;;;;1.00;1.00;;;;;22.66;52.53;99431.65;110969;1266;13122;-86
2022/09/16 02:27:08;;;;;;;;;1.00;1.00;;;;;22.65;52.47;99431.58;110968;1267;13469;-87
2022/09/16 02:29:35;;;;;;;;;1.00;1.00;;;;;22.65;52.55;99430.86;110913;1267;12873;-86
2022/09/16 02:32:03;;;;;;;;;1.00;1.00;;;;;22.66;52.47;99438.59;110963;1266;13194;-86
2022/09/16 02:34:30;;;;;;;;;1.00;1.00;;;;;22.68;52.52;99439.63;110899;1266;12713;-87
2022/09/16 02:36:57;;;;;;;;;1.00;1.00;;;;;22.66;52.49;99437.41;110933;1266;13225;-88
2022/09/16 02:39:25;;;;;;;;;1.00;1.00;;;;;22.67;52.46;99442.83;110924;1266;12926;-88
2022/09/16 02:41:54;;;;;;;;;1.00;1.00;;;;;22.65;52.47;99440.66;110908;1267;16715;-88
2022/09/16 02:44:21;;;;;;;;;1.00;1.00;;;;;22.66;52.47;99442.38;110924;1267;14201;-88
2022/09/16 02:46:48;;;;;;;;;2.00;1.00;;;;;22.65;52.46;99444.14;110884;1266;12909;-87
2022/09/16 02:49:17;;;;;;;;;1.00;1.00;;;;;22.67;52.38;99443.38;110895;1266;17119;-87
2022/09/16 02:51:44;;;;;;;;;1.00;1.00;;;;;22.67;52.41;99445.69;110898;1266;12897;-86
2022/09/16 02:54:11;;;;;;;;;1.67;1.00;;;;;22.68;52.40;99443.84;110943;1266;12995;-85
2022/09/16 02:56:39;;;;;;;;;1.00;1.00;;;;;22.69;52.44;99444.95;110929;1267;13050;-87
2022/09/16 02:59:06;;;;;;;;;1.00;1.00;;;;;22.68;52.41;99449.59;110868;1267;13163;-87
2022/09/16 03:01:33;;;;;;;;;1.00;1.00;;;;;22.67;52.37;99453.34;110920;1267;12647;-85
2022/09/16 03:04:01;;;;;;;;;1.00;1.00;;;;;22.65;52.35;99447.01;110885;1267;13096;-88
2022/09/16 03:06:31;;;;;;;;;1.00;1.00;;;;;22.66;52.38;99451.12;110913;1266;12816;-86
2022/09/16 03:08:59;;;;;;;;;1.00;1.00;;;;;22.66;52.38;99457.46;110924;1267;12862;-86
2022/09/16 03:11:26;;;;;;;;;1.00;1.00;;;;;22.66;52.39;99457.12;110866;1267;13223;-86
2022/09/16 03:13:53;;;;;;;;;1.00;1.00;;;;;22.65;52.36;99452.39;110923;1266;12596;-85
2022/09/16 03:16:21;;;;;;;;;1.00;1.00;;;;;22.65;52.29;99452.67;110906;1266;12536;-86
2022/09/16 03:18:48;;;;;;;;;1.00;1.00;;;;;22.67;52.28;99457.20;110925;1267;13129;-87
2022/09/16 03:21:15;;;;;;;;;1.00;1.00;;;;;22.65;52.32;99450.57;110961;1267;13091;-86
2022/09/16 03:23:43;;;;;;;;;1.00;1.00;;;;;22.65;52.32;99450.91;110906;1267;12892;-86
2022/09/16 03:26:10;;;;;;;;;1.00;1.00;;;;;22.66;52.31;99453.63;110926;1266;12658;-86
2022/09/16 03:28:37;;;;;;;;;1.00;1.00;;;;;22.65;52.29;99449.27;110926;1266;13313;-87
2022/09/16 03:31:05;;;;;;;;;1.00;1.00;;;;;22.67;52.25;99456.65;110921;1266;12666;-86
2022/09/16 03:33:32;;;;;;;;;1.00;1.00;;;;;22.66;52.28;99456.63;110940;1266;13175;-85
2022/09/16 03:35:59;;;;;;;;;1.00;1.00;;;;;22.65;52.30;99451.50;110937;1267;11918;-89
2022/09/16 03:38:27;;;;;;;;;1.00;1.00;;;;;22.64;52.28;99445.95;111021;1268;12702;-88
2022/09/16 03:40:54;;;;;;;;;1.00;1.00;;;;;22.64;52.33;99449.40;110975;1266;13281;-85
2022/09/16 03:43:21;;;;;;;;;1.00;1.00;;;;;22.65;52.29;99451.66;110945;1267;12657;-85
2022/09/16 03:45:49;;;;;;;;;2.00;1.00;;;;;22.64;52.30;99453.52;110963;1267;13960;-85
2022/09/16 03:48:16;;;;;;;;;1.00;1.00;;;;;22.64;52.25;99450.61;111034;1267;12366;-85
2022/09/16 03:50:43;;;;;;;;;1.00;1.00;;;;;22.65;52.21;99449.59;110941;1267;13007;-88
2022/09/16 03:53:11;;;;;;;;;1.00;1.00;;;;;22.64;52.24;99449.86;110945;1267;13219;-88
2022/09/16 03:55:38;;;;;;;;;1.67;1.00;;;;;22.64;52.22;99450.98;110919;1267;13220;-88
2022/09/16 03:58:05;;;;;;;;;1.00;1.00;;;;;22.64;52.21;99454.14;110957;1267;12720;-87
2022/09/16 04:00:33;;;;;;;;;1.00;1.00;;;;;22.64;52.21;99452.71;110930;1266;13154;-86
2022/09/16 04:03:00;;;;;;;;;1.00;1.00;;;;;22.63;52.20;99457.43;111003;1267;13107;-87
2022/09/16 04:05:27;;;;;;;;;2.00;1.00;;;;;22.62;52.19;99454.30;110917;1266;12612;-88
2022/09/16 04:07:55;;;;;;;;;2.00;2.00;;;;;22.63;52.16;99454.86;110949;1267;13322;-87
2022/09/16 04:10:22;;;;;;;;;1.00;1.00;;;;;22.62;52.09;99455.45;110950;1267;13127;-87
2022/09/16 04:12:50;;;;;;;;;1.00;1.00;;;;;22.63;52.06;99457.93;110925;1266;13090;-85
2022/09/16 04:15:17;;;;;;;;;1.00;1.00;;;;;22.62;52.09;99462.55;110934;1267;14326;-88
2022/09/16 04:17:44;;;;;;;;;1.67;1.67;;;;;22.61;51.98;99463.88;110955;1267;12782;-89
2022/09/16 04:20:12;;;;;;;;;1.00;1.00;;;;;22.62;52.04;99458.66;110918;1267;12782;-88
2022/09/16 04:22:39;;;;;;;;;1.00;1.00;;;;;22.61;52.06;99455.85;110948;1267;13135;-88
2022/09/16 04:25:06;;;;;;;;;1.00;1.00;;;;;22.61;52.03;99450.01;110942;1266;12989;-88
2022/09/16 04:27:34;;;;;;;;;1.00;1.00;;;;;22.62;51.98;99460.42;110874;1265;12858;-90
2022/09/16 04:30:01;;;;;;;;;1.00;1.00;;;;;22.62;51.93;99461.30;110961;1267;13113;-89
2022/09/16 04:32:28;;;;;;;;;1.00;1.00;;;;;22.62;51.96;99461.85;110761;1266;12758;-89
2022/09/16 04:34:56;;;;;;;;;1.00;1.00;;;;;22.62;51.92;99463.32;111011;1267;13119;-88
2022/09/16 04:37:23;;;;;;;;;1.00;1.00;;;;;22.62;51.93;99468.61;110913;1266;12371;-88
2022/09/16 04:39:50;;;;;;;;;1.00;1.00;;;;;22.61;51.83;99465.64;110945;1267;13007;-89
2022/09/16 04:42:18;;;;;;;;;1.00;1.00;;;;;22.62;51.86;99466.48;110981;1266;12977;-87
2022/09/16 04:44:46;;;;;;;;;1.00;1.00;;;;;22.63;51.84;99464.83;110897;1266;12679;-89
2022/09/16 04:47:13;;;;;;;;;1.00;1.00;;;;;22.62;51.79;99463.33;110957;1266;13336;-90
2022/09/16 04:49:40;;;;;;;;;1.00;1.00;;;;;22.62;51.77;99464.51;110915;1266;12679;-89
2022/09/16 04:52:07;;;;;;;;;1.00;1.00;;;;;22.62;51.74;99463.95;110965;1267;13203;-88
2022/09/16 04:54:35;;;;;;;;;1.00;1.00;;;;;22.63;51.77;99466.00;110887;1265;12902;-89
2022/09/16 04:57:02;;;;;;;;;1.00;1.00;;;;;22.61;51.76;99465.30;110972;1267;12929;-87
2022/09/16 04:59:29;;;;;;;;;1.00;1.00;;;;;22.62;51.71;99463.58;110883;1266;13164;-85
2022/09/16 05:01:57;;;;;;;;;1.00;1.00;;;;;22.66;51.70;99467.96;110823;1266;13064;-89
2022/09/16 05:04:24;;;;;;;;;1.00;1.00;;;;;22.69;51.84;99465.29;110940;1267;13140;-87
2022/09/16 05:06:52;;;;;;;;;1.67;1.00;;;;;22.72;51.96;99466.04;110920;1266;12905;-89
2022/09/16 05:09:21;;;;;;;;;1.00;1.00;;;;;22.74;51.80;99461.73;111146;1267;12957;-91
2022/09/16 05:11:49;;;;;;;;;1.67;1.67;;;;;22.72;51.98;99469.40;111125;1266;12781;-90
2022/09/16 05:14:16;;;;;;;;;3.67;3.67;;;;;22.65;51.87;99465.23;111051;1266;12669;-92
2022/09/16 05:16:43;;;;;;;;;8.00;7.33;;;;;22.61;51.86;99465.34;111113;1267;13449;-90
2022/09/16 05:19:10;;;;;;;;;7.00;6.50;;;;;22.55;51.17;99464.54;110146;1266;1213613;-89
2022/09/16 05:21:38;;;;;;;;;5.50;5.50;;;;;22.50;50.58;99465.70;111007;1266;10427;-91
2022/09/16 05:24:06;;;;;;;;;5.00;5.00;;;;;22.47;50.21;99462.95;111003;1266;12503;-92
2022/09/16 05:26:36;;;;;;;;;5.00;5.00;;;;;22.46;49.80;99466.61;111023;1265;13115;-92
2022/09/16 05:29:03;;;;;;;;;5.00;5.00;;;;;22.43;49.35;99463.95;110873;1267;13221;-87
2022/09/16 05:31:31;;;;;;;;;5.00;5.00;;;;;22.47;49.32;99472.31;110885;1266;13202;-86
2022/09/16 05:33:58;;;;;;;;;5.00;3.00;;;;;22.55;49.22;99471.36;110839;1267;13249;-87
2022/09/16 05:36:25;;;;;;;;;2.67;2.67;;;;;22.61;49.12;99474.96;110932;1268;12843;-87
2022/09/16 05:38:53;;;;;;;;;2.67;2.67;;;;;22.65;49.13;99470.89;110873;1267;13177;-87
2022/09/16 05:41:20;;;;;;;;;3.00;2.00;;;;;22.71;49.53;99472.73;110924;1267;12381;-87
2022/09/16 05:43:47;;;;;;;;;2.00;2.00;;;;;22.77;50.44;99472.22;110923;1267;14018;-86
2022/09/16 05:46:15;;;;;;;;;2.67;2.67;;;;;22.81;52.00;99470.47;110936;1267;19008;-86
2022/09/16 05:48:43;;;;;;;;;2.00;2.00;;;;;22.90;53.14;99469.03;110912;1267;13315;-86
2022/09/16 05:51:10;;;;;;;;;5.00;3.00;;;;;22.99;53.88;99471.98;110917;1266;13088;-88
2022/09/16 05:53:37;;;;;;;;;2.00;2.00;;;;;23.12;54.31;99471.70;110892;1267;14584;-85
2022/09/16 05:56:05;;;;;;;;;2.33;2.00;;;;;23.18;54.12;99467.80;110808;1267;12612;-88
2022/09/16 05:58:32;;;;;;;;;2.00;2.00;;;;;23.23;53.93;99464.86;110812;1266;12362;-82
2022/09/16 06:00:59;;;;;;;;;2.00;2.00;;;;;23.24;53.89;99466.28;110873;1266;13212;-86
2022/09/16 06:03:27;;;;;;;;;2.00;1.00;;;;;23.23;53.79;99468.86;110978;1266;13224;-87
2022/09/16 06:05:54;;;;;;;;;2.00;2.00;;;;;23.19;53.68;99470.45;110891;1267;12901;-83
2022/09/16 06:08:21;;;;;;;;;2.00;2.00;;;;;23.17;53.66;99471.67;110862;1267;16480;-88
2022/09/16 06:10:49;;;;;;;;;2.00;2.00;;;;;23.20;53.63;99470.48;110880;1266;13315;-83
2022/09/16 06:13:18;;;;;;;;;2.00;2.00;;;;;23.21;53.50;99470.86;110893;1266;12960;-85
2022/09/16 06:15:45;;;;;;;;;2.00;1.00;;;;;23.22;53.27;99468.08;110894;1267;13109;-85
2022/09/16 06:18:15;;;;;;;;;2.00;2.00;;;;;23.21;53.03;99470.19;110933;1266;13811;-85
2022/09/16 06:20:42;;;;;;;;;1.00;1.00;;;;;23.22;52.82;99463.32;110892;1267;14544;-85
2022/09/16 06:23:09;;;;;;;;;2.00;2.00;;;;;23.23;52.65;99460.23;110930;1266;13076;-85
2022/09/16 06:25:37;;;;;;;;;2.00;2.00;;;;;23.21;52.47;99464.71;110935;1266;12393;-85
2022/09/16 06:28:04;;;;;;;;;1.00;1.00;;;;;23.24;52.33;99456.28;110880;1264;12697;-85
2022/09/16 06:30:31;;;;;;;;;1.67;1.67;;;;;23.26;52.11;99462.23;110920;1267;12677;-85
2022/09/16 06:32:59;;;;;;;;;2.00;2.00;;;;;23.28;52.00;99463.64;110821;1267;13192;-90
2022/09/16 06:35:26;;;;;;;;;2.00;2.00;;;;;23.28;51.80;99463.69;111002;1267;18175;-86
2022/09/16 06:37:53;;;;;;;;;3.00;3.00;;;;;23.17;51.38;99464.70;111016;1266;12983;-88
2022/09/16 06:40:20;;;;;;;;;2.00;2.00;;;;;23.05;50.94;99471.78;110915;1266;13166;-89
2022/09/16 06:42:48;;;;;;;;;2.33;2.00;;;;;22.99;50.51;99472.52;110984;1267;13283;-89
2022/09/16 06:45:15;;;;;;;;;2.00;2.00;;;;;22.95;50.04;99462.83;110980;1266;13194;-83
2022/09/16 06:47:42;;;;;;;;;2.67;2.00;;;;;22.93;49.65;99459.69;110893;1267;13198;-86
2022/09/16 06:50:10;;;;;;;;;2.67;2.67;;;;;22.93;49.81;99461.11;110927;1267;12968;-87
2022/09/16 06:52:37;;;;;;;;;3.00;3.00;;;;;22.91;48.86;99463.29;110884;1267;13108;-88
2022/09/16 06:55:04;;;;;;;;;2.00;2.00;;;;;22.88;48.41;99460.30;110918;1267;13095;-85
2022/09/16 06:57:32;;;;;;;;;3.00;3.00;;;;;22.90;48.09;99458.46;110963;1267;13201;-89
2022/09/16 06:59:59;;;;;;;;;3.00;3.00;;;;;22.81;47.47;99458.33;110937;1266;12946;-91
2022/09/16 07:02:27;;;;;;;;;5.00;5.00;;;;;22.46;46.14;99459.42;111086;1267;12940;-87
2022/09/16 07:04:55;;;;;;;;;2.33;2.33;;;;;22.00;45.74;99461.85;110877;1265;13259;-90
2022/09/16 07:07:22;;;;;;;;;3.00;3.00;;;;;21.63;46.00;99467.87;111029;1267;13303;-88
2022/09/16 07:09:49;;;;;;;;;6.00;4.33;;;;;21.44;46.30;99461.36;110913;1267;12748;-89
2022/09/16 07:12:17;;;;;;;;;3.67;3.00;;;;;21.45;46.08;99467.49;110920;1266;13236;-89
2022/09/16 07:14:44;;;;;;;;;4.67;4.67;;;;;21.27;46.12;99467.48;110907;1266;13041;-89
2022/09/16 07:17:11;;;;;;;;;6.67;6.67;;;;;21.14;46.17;99469.26;110981;1267;14847;-90
2022/09/16 07:19:41;;;;;;;;;3.00;3.00;;;;;21.07;46.19;99468.08;110957;1266;13098;-89
2022/09/16 07:22:10;;;;;;;;;6.67;5.00;;;;;21.11;46.23;99466.56;110991;1267;12757;-88
2022/09/16 07:24:37;;;;;;;;;9.00;3.00;;;;;21.11;46.21;99465.15;111008;1267;13193;-89
2022/09/16 07:27:04;;;;;;;;;3.67;3.00;;;;;21.10;46.18;99469.42;111002;1267;13115;-88
2022/09/16 07:29:32;;;;;;;;;5.67;5.00;;;;;21.10;46.06;99476.71;110971;1267;12707;-88
2022/09/16 07:32:00;;;;;;;;;3.33;3.33;;;;;21.12;45.84;99473.02;110942;1265;12985;-89
2022/09/16 07:34:27;;;;;;;;;5.33;5.00;;;;;20.95;45.77;99472.89;110962;1267;13186;-89
2022/09/16 07:36:55;;;;;;;;;6.00;6.00;;;;;20.99;45.78;99477.80;111000;1267;13186;-89
2022/09/16 07:39:24;;;;;;;;;5.00;5.00;;;;;20.97;45.60;99475.79;111002;1265;13308;-87
2022/09/16 07:41:52;;;;;;;;;6.00;5.00;;;;;20.83;45.52;99483.02;111020;1266;13110;-89
2022/09/16 07:44:19;;;;;;;;;4.00;3.33;;;;;20.82;45.53;99486.49;110995;1267;12814;-90
2022/09/16 07:46:46;;;;;;;;;5.00;4.00;;;;;20.77;45.35;99486.41;111046;1266;13191;-86
2022/09/16 07:49:14;;;;;;;;;4.00;4.00;;;;;20.84;45.27;99485.70;110942;1267;13114;-89
2022/09/16 07:51:41;;;;;;;;;4.00;4.00;;;;;20.89;45.05;99484.42;111242;1267;13108;-85
2022/09/16 07:54:09;;;;;;;;;5.00;5.00;;;;;21.04;45.03;99489.66;111010;1267;13158;-85
2022/09/16 07:56:37;;;;;;;;;3.00;3.00;;;;;21.12;45.23;99489.27;110914;1267;13230;-87
2022/09/16 07:59:04;;;;;;;;;5.00;5.00;;;;;21.22;45.11;99486.86;110933;1268;13031;-86
2022/09/16 08:01:31;;;;;;;;;5.33;5.00;;;;;21.15;45.18;99485.98;110912;1267;16727;-85
2022/09/16 08:03:59;;;;;;;;;4.33;3.33;;;;;21.14;45.36;99487.23;110988;1266;13168;-85
2022/09/16 08:06:26;;;;;;;;;3.00;3.00;;;;;21.21;45.38;99493.64;111111;1267;13211;-87
2022/09/16 08:08:53;;;;;;;;;3.00;3.00;;;;;21.09;45.23;99497.45;110950;1267;13239;-84
2022/09/16 08:11:22;;;;;;;;;5.00;3.67;;;;;20.88;44.87;99500.33;110856;1266;12902;-86
2022/09/16 08:13:49;;;;;;;;;6.00;4.33;;;;;20.83;44.60;99497.23;111033;1267;13019;-88
2022/09/16 08:16:16;;;;;;;;;3.33;3.33;;;;;20.93;44.41;99496.60;111049;1267;13199;-87
2022/09/16 08:18:44;;;;;;;;;4.00;4.00;;;;;20.93;44.40;99501.14;110821;1266;13515;-89
2022/09/16 08:21:11;;;;;;;;;5.00;4.67;;;;;20.87;44.58;99497.30;110809;1267;12795;-88
2022/09/16 08:23:38;;;;;;;;;4.00;4.00;;;;;20.79;44.66;99501.61;110907;1265;12373;-88
2022/09/16 08:26:07;;;;;;;;;6.00;5.00;;;;;20.71;44.56;99502.98;110879;1266;12873;-88
2022/09/16 08:28:34;;;;;;;;;4.00;2.00;;;;;20.76;44.15;99501.98;110860;1267;13256;-88
2022/09/16 08:31:02;;;;;;;;;4.00;4.00;;;;;20.62;43.95;99501.95;110730;1267;14691;-88
2022/09/16 08:33:29;;;;;;;;;3.33;3.33;;;;;20.57;43.83;99498.92;110970;1267;13313;-87
2022/09/16 08:35:57;;;;;;;;;5.33;4.33;;;;;20.60;43.76;99496.22;110968;1267;13115;-87
2022/09/16 08:38:24;;;;;;;;;5.00;4.00;;;;;20.55;43.64;99492.59;110953;1266;12564;-89
2022/09/16 08:40:51;;;;;;;;;5.00;4.67;;;;;20.44;43.64;99491.91;110975;1267;16498;-88
2022/09/16 08:43:19;;;;;;;;;5.00;4.00;;;;;20.42;43.73;99484.79;110993;1267;12650;-86
2022/09/16 08:45:46;;;;;;;;;4.00;4.00;;;;;20.64;43.80;99485.80;111010;1267;13128;-89
2022/09/16 08:48:14;;;;;;;;;4.00;4.00;;;;;20.85;43.59;99485.87;111050;1267;13082;-87
2022/09/16 08:50:41;;;;;;;;;4.33;4.33;;;;;20.97;43.40;99490.99;110956;1266;16680;-87
2022/09/16 08:53:13;;;;;;;;;5.00;4.00;;;;;20.95;43.20;99490.53;110906;1267;13076;-88
2022/09/16 08:55:42;;;;;;;;;5.33;5.33;;;;;20.78;43.09;99495.12;110957;1267;12758;-87
2022/09/16 08:58:09;;;;;;;;;6.00;5.00;;;;;20.68;43.26;99495.64;110920;1265;12711;-88
2022/09/16 09:00:36;;;;;;;;;4.00;4.00;;;;;20.55;43.24;99494.90;110928;1267;13219;-88
2022/09/16 09:03:04;;;;;;;;;4.00;4.00;;;;;20.43;43.13;99491.88;110941;1266;12938;-89
2022/09/16 09:05:31;;;;;;;;;2.67;2.67;;;;;20.46;42.93;99491.30;110930;1267;13243;-88
2022/09/16 09:07:58;;;;;;;;;4.00;2.00;;;;;20.60;42.61;99491.48;110938;1267;12894;-87
2022/09/16 09:10:26;;;;;;;;;4.00;4.00;;;;;20.59;42.76;99494.16;110966;1266;16772;-88
2022/09/16 09:12:53;;;;;;;;;2.00;2.00;;;;;20.48;42.71;99485.55;110932;1266;13255;-87
2022/09/16 09:15:20;;;;;;;;;4.00;4.00;;;;;20.50;42.69;99490.40;110946;1267;12991;-88
2022/09/16 09:17:48;;;;;;;;;3.33;3.33;;;;;20.55;42.59;99488.50;110926;1266;12473;-88
2022/09/16 09:20:15;;;;;;;;;5.00;4.00;;;;;20.55;42.46;99484.36;110913;1267;12529;-86
2022/09/16 09:22:42;;;;;;;;;4.00;4.00;;;;;20.57;42.41;99483.48;110890;1266;12488;-88
2022/09/16 09:25:11;;;;;;;;;5.33;5.33;;;;;20.68;42.58;99475.71;110962;1266;13069;-88
2022/09/16 09:27:38;;;;;;;;;6.67;5.33;;;;;20.72;42.41;99475.88;110957;1265;12834;-87
2022/09/16 09:30:05;;;;;;;;;5.00;4.00;;;;;20.58;42.35;99478.84;110939;1265;13138;-86
2022/09/16 09:32:33;;;;;;;;;4.00;4.00;;;;;20.48;42.55;99482.70;110913;1266;12991;-85
2022/09/16 09:35:02;;;;;;;;;54.67;43.00;;;;;20.49;42.80;99481.04;110760;1265;12728;-87
2022/09/16 09:37:29;;;;;;;;;71.67;51.00;;;;;20.69;42.70;99479.23;110792;1267;13159;-86
2022/09/16 09:39:59;;;;;;;;;34.67;29.33;;;;;20.72;42.47;99480.98;110859;1266;13335;-86
2022/09/16 09:42:26;;;;;;;;;17.33;15.67;;;;;20.65;42.44;99480.98;110847;1267;13119;-85
2022/09/16 09:44:54;;;;;;;;;13.00;10.00;;;;;20.69;42.32;99477.17;110796;1265;13335;-86
2022/09/16 09:47:21;;;;;;;;;6.00;5.67;;;;;20.73;42.20;99481.63;110814;1266;13241;-85
2022/09/16 09:49:49;;;;;;;;;4.33;4.33;;;;;20.81;42.04;99479.75;110841;1266;12908;-87
2022/09/16 09:52:17;;;;;;;;;4.00;4.00;;;;;20.78;42.28;99479.96;110760;1267;13045;-85
2022/09/16 09:54:44;;;;;;;;;7.33;6.00;;;;;20.73;42.32;99483.51;110877;1267;13217;-86
2022/09/16 09:57:11;;;;;;;;;4.00;4.00;;;;;20.76;42.37;99480.04;110912;1266;16522;-89
2022/09/16 09:59:40;;;;;;;;;2.00;2.00;;;;;20.74;42.39;99481.59;110918;1266;13226;-86
2022/09/16 10:02:08;;;;;;;;;4.00;4.00;;;;;20.87;42.45;99482.95;110799;1266;12678;-85
2022/09/16 10:04:35;;;;;;;;;4.00;4.00;;;;;20.90;42.47;99478.17;110773;1267;14562;-87
2022/09/16 10:07:03;;;;;;;;;4.67;4.00;;;;;20.83;42.54;99479.45;110851;1267;13303;-84
2022/09/16 10:09:30;;;;;;;;;4.33;4.33;;;;;20.84;42.39;99481.86;111010;1267;12981;-85
2022/09/16 10:11:58;;;;;;;;;4.33;4.33;;;;;20.84;42.40;99477.28;110822;1266;13264;-87
2022/09/16 10:14:25;;;;;;;;;4.00;4.00;;;;;20.83;42.59;99482.89;110836;1266;12767;-85
2022/09/16 10:16:53;;;;;;;;;5.67;4.33;;;;;20.90;42.67;99476.08;110844;1267;13127;-87
2022/09/16 10:19:20;;;;;;;;;4.00;4.00;;;;;21.03;42.61;99477.05;110870;1267;12983;-87
2022/09/16 10:21:48;;;;;;;;;5.33;4.00;;;;;21.09;42.46;99474.40;110878;1266;14038;-87
2022/09/16 10:24:15;;;;;;;;;4.00;4.00;;;;;21.09;42.44;99473.86;110942;1267;12782;-88
2022/09/16 10:26:43;;;;;;;;;2.00;2.00;;;;;21.17;42.31;99467.23;110863;1266;12730;-85
2022/09/16 10:29:10;;;;;;;;;4.67;4.00;;;;;21.25;42.02;99461.11;110855;1265;15743;-83
2022/09/16 10:31:38;;;;;;;;;5.00;4.00;;;;;21.34;41.72;99468.84;110853;1267;13324;-84
2022/09/16 10:34:05;;;;;;;;;4.00;4.00;;;;;21.26;41.38;99470.22;110849;1265;13318;-85
2022/09/16 10:36:32;;;;;;;;;2.00;2.00;;;;;21.18;41.17;99480.44;110930;1267;13682;-88
2022/09/16 10:39:01;;;;;;;;;2.00;2.00;;;;;21.17;41.09;99473.39;110920;1267;13034;-82
2022/09/16 10:41:33;;;;;;;;;4.00;4.00;;;;;21.21;41.10;99479.23;110875;1266;12961;-84
2022/09/16 10:44:09;;;;;;;;;2.00;2.00;;;;;21.25;40.87;99483.34;110826;1266;12826;-86
2022/09/16 10:46:52;;;;;;;;;4.00;3.33;;;;;21.39;40.80;99480.49;110667;1268;16901;-85
2022/09/16 10:49:26;;;;;;;;;3.00;2.50;;;;;21.70;40.82;99478.90;110942;1267;13023;-83
2022/09/16 10:51:54;;;;;;;;;3.00;3.00;;;;;21.93;40.74;99476.98;110922;1267;12675;-84
2022/09/16 10:57:09;;;;;;;;;2.33;2.00;;;;;22.17;40.85;99491.27;110988;1267;13114;-83
2022/09/16 10:59:39;;;;;;;;;2.00;2.00;;;;;22.21;40.97;99491.14;110874;1266;13220;-83
2022/09/16 11:02:06;;;;;;;;;2.00;2.00;;;;;22.23;41.13;99496.45;110908;1266;13077;-86
2022/09/16 11:04:33;;;;;;;;;4.33;4.33;;;;;22.00;40.67;99492.52;111042;1267;13141;-88
2022/09/16 11:07:01;;;;;;;;;3.00;2.00;;;;;21.42;40.22;99494.62;111190;1267;13333;-87
2022/09/16 11:09:28;;;;;;;;;3.00;3.00;;;;;21.09;40.00;99490.41;110914;1267;13193;-86
2022/09/16 11:11:56;;;;;;;;;4.00;2.00;;;;;20.85;40.04;99495.17;110908;1265;13279;-87
2022/09/16 11:14:23;;;;;;;;;2.00;2.00;;;;;20.71;40.26;99496.36;110963;1267;13229;-88
2022/09/16 11:16:50;;;;;;;;;4.00;4.00;;;;;20.61;40.39;99493.99;110948;1266;13190;-86
2022/09/16 11:19:18;;;;;;;;;5.33;2.67;;;;;20.58;40.11;99491.19;110905;1266;13084;-87
2022/09/16 11:21:46;;;;;;;;;2.00;2.00;;;;;20.52;40.15;99491.52;110920;1267;12969;-86
2022/09/16 11:24:14;;;;;;;;;4.00;4.00;;;;;20.52;39.95;99493.72;110953;1266;13414;-87
2022/09/16 11:26:41;;;;;;;;;2.00;2.00;;;;;20.41;39.76;99493.38;110918;1267;13292;-87
2022/09/16 11:29:08;;;;;;;;;4.00;2.00;;;;;20.33;39.73;99483.75;110921;1267;13236;-88
2022/09/16 11:31:36;;;;;;;;;4.00;4.00;;;;;20.39;39.57;99486.11;110840;1265;13084;-87